Ginga — JJ4054 — position and weather

sailwx.info

Track history (hours):
 
Tides and Currents Weather Stations Pressure Air Temp Water Temp Dewpoint Dewpoint Depression Visibility Wind Speed Wind Dir Waves Ship Positions

Ginga

Last reported at 2018-Jan-10 08:02 UTC. Time now 2018-Jan-18 17:28 UTC.
Position N 34°39' E 135°09'.
Warning: this ship's position is 8 days out of date.

Length 28 m; draft 1.6 m.

Type: Other ship. MMSI: 431301704.

Date/timePositionNaut miles runAvg speedWind from/ knotsBaromVisibWave heightAir tempDewpointWater temp
2018-Jan-10 08:02N 34°39' E 135°09'0 0.3
2018-Jan-10 08:01N 34°39' E 135°09'612.0
2018-Jan-10 07:30N 34°35' E 135°03'5 9.9
2018-Jan-10 07:00N 34°36' E 134°58'3 5.2
2018-Jan-10 06:31N 34°36' E 135°01'2 4.5
2018-Jan-10 06:01N 34°38' E 135°03'0 0.0
2018-Jan-10 05:30N 34°38' E 135°03'0 0.1
2018-Jan-10 05:00N 34°38' E 135°03'0 0.0
2018-Jan-10 02:01N 34°38' E 135°03'0 0.0
2018-Jan-10 02:01N 34°38' E 135°03'3 6.8
2018-Jan-10 01:31N 34°37' E 134°59'611.8
2018-Jan-10 01:01N 34°35' E 135°05'4 8.8
2018-Jan-10 00:30N 34°38' E 135°10'1 2.4
2018-Jan-10 00:00N 34°39' E 135°09'0 0.0
2018-Jan-08 07:40N 34°39' E 135°09'1 5.4
2018-Jan-08 07:30N 34°38' E 135°09'612.6
2018-Jan-08 07:01N 34°36' E 135°02'5 9.4
2018-Jan-08 06:30N 34°36' E 134°56'1 1.8
2018-Jan-08 06:00N 34°35' E 134°57'2 3.1
2018-Jan-08 05:31N 34°36' E 134°59'1 2.2
2018-Jan-08 05:01N 34°37' E 135°00'713.9
2018-Jan-08 04:31N 34°30' E 135°01'917.1
2018-Jan-08 04:00N 34°21' E 134°58'3 6.7
2018-Jan-08 03:31N 34°18' E 134°58'714.1
2018-Jan-08 03:01N 34°24' E 135°02'815.4
2018-Jan-08 02:30N 34°28' E 135°10'612.9
2018-Jan-08 02:00N 34°32' E 135°17'510.0
2018-Jan-08 01:30N 34°33' E 135°22'1 2.4
2018-Jan-08 01:01N 34°33' E 135°24'3 5.1
2018-Jan-08 00:30N 34°34' E 135°21'815.7
2018-Jan-08 00:00N 34°37' E 135°12'3 5.8
2018-Jan-07 23:31N 34°39' E 135°09'0 0.0
2018-Jan-07 02:12N 34°39' E 135°09'2 9.4
2018-Jan-07 02:01N 34°38' E 135°11'917.0
2018-Jan-07 01:30N 34°34' E 135°21'1 1.0
2018-Jan-07 00:31N 34°33' E 135°21'611.6
2018-Jan-07 00:00N 34°31' E 135°15'713.1
2018-Jan-06 23:30N 34°26' E 135°09'713.6
2018-Jan-06 23:00N 34°21' E 135°03'612.8
2018-Jan-06 22:30N 34°16' E 134°59'510.5
2018-Jan-06 22:00N 34°11' E 134°60'0 1.0
2018-Jan-06 21:31N 34°11' E 135°00'714.8
2018-Jan-06 21:01N 34°18' E 134°58'4 8.0
2018-Jan-06 20:30N 34°21' E 134°54'0 0.0
2018-Jan-06 07:17N 34°21' E 134°54'312.3
2018-Jan-06 07:01N 34°19' E 134°57'1 2.5
2018-Jan-06 06:31N 34°19' E 134°58'713.1
2018-Jan-06 06:00N 34°24' E 135°03'713.9
2018-Jan-06 05:31N 34°28' E 135°10'713.0
2018-Jan-06 05:00N 34°32' E 135°17'4 8.5
2018-Jan-06 04:30N 34°33' E 135°21'3 6.3
2018-Jan-06 04:01N 34°33' E 135°25'0 0.5
2018-Jan-06 03:30N 34°33' E 135°25'0 0.3
2018-Jan-06 03:00N 34°33' E 135°25'0 0.4
2018-Jan-06 02:30N 34°34' E 135°26'1 1.4
2018-Jan-06 02:00N 34°34' E 135°25'0 0.6
2018-Jan-06 01:30N 34°33' E 135°24'3 5.6
2018-Jan-06 01:01N 34°33' E 135°21'4 8.8
2018-Jan-06 00:30N 34°34' E 135°16'713.6
2018-Jan-06 00:00N 34°39' E 135°10'0 0.6
2018-Jan-05 23:30N 34°39' E 135°09'0 0.0
2018-Jan-05 08:31N 34°39' E 135°09'0 0.0
2018-Jan-05 08:30N 34°39' E 135°09'713.5
2018-Jan-05 08:01N 34°32' E 135°07'816.5
2018-Jan-05 07:30N 34°25' E 135°04'816.0
2018-Jan-05 07:00N 34°18' E 134°59'2 4.3
2018-Jan-05 06:30N 34°20' E 134°59'714.4
2018-Jan-05 06:01N 34°25' E 135°05'714.5
2018-Jan-05 05:31N 34°29' E 135°12'713.1
2018-Jan-05 05:00N 34°32' E 135°19'3 6.7
2018-Jan-05 04:30N 34°33' E 135°23'1 1.5
2018-Jan-05 04:01N 34°34' E 135°24'0 0.2
2018-Jan-05 03:31N 34°34' E 135°24'0 0.7
2018-Jan-05 03:01N 34°34' E 135°23'1 1.3
2018-Jan-05 02:30N 34°33' E 135°23'2 3.8
2018-Jan-05 02:00N 34°31' E 135°24'0 0.9
2018-Jan-05 01:31N 34°31' E 135°24'3 5.3
2018-Jan-05 01:00N 34°33' E 135°25'3 5.6
2018-Jan-05 00:30N 34°33' E 135°22'510.1
2018-Jan-05 00:00N 34°32' E 135°16'510.5
2018-Jan-04 23:31N 34°29' E 135°11'510.6
2018-Jan-04 23:01N 34°25' E 135°06'714.2
2018-Jan-04 22:30N 34°20' E 135°01'714.4
2018-Jan-04 22:00N 34°13' E 134°59'2 4.5
2018-Jan-04 21:30N 34°10' E 134°59'815.9
2018-Jan-04 21:01N 34°18' E 134°59'815.5
2018-Jan-04 20:31N 34°26' E 135°02'816.4
2018-Jan-04 20:00N 34°33' E 135°07'713.5
2018-Jan-04 19:30N 34°39' E 135°10'0 0.5
2018-Jan-04 19:00N 34°39' E 135°09'0 0.0
2018-Jan-03 22:40N 34°39' E 135°09'1 4.7
2018-Jan-03 22:30N 34°38' E 135°09'714.5
2018-Jan-03 22:00N 34°38' E 135°01'1 3.0
2018-Jan-03 21:31N 34°38' E 134°59'510.0
2018-Jan-03 21:00N 34°36' E 135°04'4 7.5
2018-Jan-03 20:31N 34°34' E 135°08'3 5.4
2018-Jan-03 20:00N 34°34' E 135°05'3 5.9
2018-Jan-03 19:30N 34°35' E 135°02'1 1.3
2018-Jan-03 19:00N 34°36' E 135°01'2 4.8
2018-Jan-03 18:30N 34°38' E 134°59'4 7.9
2018-Jan-03 18:01N 34°36' E 135°04'3 6.6
2018-Jan-03 17:31N 34°35' E 135°08'4 7.7
2018-Jan-03 17:01N 34°39' E 135°09'0 0.0
2018-Jan-01 22:15N 34°39' E 135°09'310.9
2018-Jan-01 22:01N 34°38' E 135°12'4 7.9
2018-Jan-01 21:30N 34°36' E 135°16'611.4
2018-Jan-01 21:01N 34°31' E 135°13'713.4
2018-Jan-01 20:31N 34°26' E 135°08'713.3
2018-Jan-01 20:01N 34°20' E 135°02'612.3
2018-Jan-01 19:30N 34°15' E 134°59'4 8.6
2018-Jan-01 19:01N 34°11' E 134°60'510.4
2018-Jan-01 18:31N 34°16' E 134°58'815.5
2018-Jan-01 18:00N 34°23' E 135°01'816.0
2018-Jan-01 17:31N 34°30' E 135°06'  
Track history (hours):
 
Tides and Currents Weather Stations Pressure Air Temp Water Temp Dewpoint Dewpoint Depression Visibility Wind Speed Wind Dir Waves Ship Positions

Ginga

Last reported at 2018-Jan-10 08:02 UTC. Time now 2018-Jan-18 17:28 UTC.
Position N 34°39' E 135°09'.
Warning: this ship's position is 8 days out of date.

Length 28 m; draft 1.6 m.

Type: Other ship. MMSI: 431301704.

Date/timePositionNaut miles runAvg speedWind from/ knotsBaromVisibWave heightAir tempDewpointWater temp
2018-Jan-10 08:02N 34°39' E 135°09'0 0.3
2018-Jan-10 08:01N 34°39' E 135°09'612.0
2018-Jan-10 07:30N 34°35' E 135°03'5 9.9
2018-Jan-10 07:00N 34°36' E 134°58'3 5.2
2018-Jan-10 06:31N 34°36' E 135°01'2 4.5
2018-Jan-10 06:01N 34°38' E 135°03'0 0.0
2018-Jan-10 05:30N 34°38' E 135°03'0 0.1
2018-Jan-10 05:00N 34°38' E 135°03'0 0.0
2018-Jan-10 02:01N 34°38' E 135°03'0 0.0
2018-Jan-10 02:01N 34°38' E 135°03'3 6.8
2018-Jan-10 01:31N 34°37' E 134°59'611.8
2018-Jan-10 01:01N 34°35' E 135°05'4 8.8
2018-Jan-10 00:30N 34°38' E 135°10'1 2.4
2018-Jan-10 00:00N 34°39' E 135°09'0 0.0
2018-Jan-08 07:40N 34°39' E 135°09'1 5.4
2018-Jan-08 07:30N 34°38' E 135°09'612.6
2018-Jan-08 07:01N 34°36' E 135°02'5 9.4
2018-Jan-08 06:30N 34°36' E 134°56'1 1.8
2018-Jan-08 06:00N 34°35' E 134°57'2 3.1
2018-Jan-08 05:31N 34°36' E 134°59'1 2.2
2018-Jan-08 05:01N 34°37' E 135°00'713.9
2018-Jan-08 04:31N 34°30' E 135°01'917.1
2018-Jan-08 04:00N 34°21' E 134°58'3 6.7
2018-Jan-08 03:31N 34°18' E 134°58'714.1
2018-Jan-08 03:01N 34°24' E 135°02'815.4
2018-Jan-08 02:30N 34°28' E 135°10'612.9
2018-Jan-08 02:00N 34°32' E 135°17'510.0
2018-Jan-08 01:30N 34°33' E 135°22'1 2.4
2018-Jan-08 01:01N 34°33' E 135°24'3 5.1
2018-Jan-08 00:30N 34°34' E 135°21'815.7
2018-Jan-08 00:00N 34°37' E 135°12'3 5.8
2018-Jan-07 23:31N 34°39' E 135°09'0 0.0
2018-Jan-07 02:12N 34°39' E 135°09'2 9.4
2018-Jan-07 02:01N 34°38' E 135°11'917.0
2018-Jan-07 01:30N 34°34' E 135°21'1 1.0
2018-Jan-07 00:31N 34°33' E 135°21'611.6
2018-Jan-07 00:00N 34°31' E 135°15'713.1
2018-Jan-06 23:30N 34°26' E 135°09'713.6
2018-Jan-06 23:00N 34°21' E 135°03'612.8
2018-Jan-06 22:30N 34°16' E 134°59'510.5
2018-Jan-06 22:00N 34°11' E 134°60'0 1.0
2018-Jan-06 21:31N 34°11' E 135°00'714.8
2018-Jan-06 21:01N 34°18' E 134°58'4 8.0
2018-Jan-06 20:30N 34°21' E 134°54'0 0.0
2018-Jan-06 07:17N 34°21' E 134°54'312.3
2018-Jan-06 07:01N 34°19' E 134°57'1 2.5
2018-Jan-06 06:31N 34°19' E 134°58'713.1
2018-Jan-06 06:00N 34°24' E 135°03'713.9
2018-Jan-06 05:31N 34°28' E 135°10'713.0
2018-Jan-06 05:00N 34°32' E 135°17'4 8.5
2018-Jan-06 04:30N 34°33' E 135°21'3 6.3
2018-Jan-06 04:01N 34°33' E 135°25'0 0.5
2018-Jan-06 03:30N 34°33' E 135°25'0 0.3
2018-Jan-06 03:00N 34°33' E 135°25'0 0.4
2018-Jan-06 02:30N 34°34' E 135°26'1 1.4
2018-Jan-06 02:00N 34°34' E 135°25'0 0.6
2018-Jan-06 01:30N 34°33' E 135°24'3 5.6
2018-Jan-06 01:01N 34°33' E 135°21'4 8.8
2018-Jan-06 00:30N 34°34' E 135°16'713.6
2018-Jan-06 00:00N 34°39' E 135°10'0 0.6
2018-Jan-05 23:30N 34°39' E 135°09'0 0.0
2018-Jan-05 08:31N 34°39' E 135°09'0 0.0
2018-Jan-05 08:30N 34°39' E 135°09'713.5
2018-Jan-05 08:01N 34°32' E 135°07'816.5
2018-Jan-05 07:30N 34°25' E 135°04'816.0
2018-Jan-05 07:00N 34°18' E 134°59'2 4.3
2018-Jan-05 06:30N 34°20' E 134°59'714.4
2018-Jan-05 06:01N 34°25' E 135°05'714.5
2018-Jan-05 05:31N 34°29' E 135°12'713.1
2018-Jan-05 05:00N 34°32' E 135°19'3 6.7
2018-Jan-05 04:30N 34°33' E 135°23'1 1.5
2018-Jan-05 04:01N 34°34' E 135°24'0 0.2
2018-Jan-05 03:31N 34°34' E 135°24'0 0.7
2018-Jan-05 03:01N 34°34' E 135°23'1 1.3
2018-Jan-05 02:30N 34°33' E 135°23'2 3.8
2018-Jan-05 02:00N 34°31' E 135°24'0 0.9
2018-Jan-05 01:31N 34°31' E 135°24'3 5.3
2018-Jan-05 01:00N 34°33' E 135°25'3 5.6
2018-Jan-05 00:30N 34°33' E 135°22'510.1
2018-Jan-05 00:00N 34°32' E 135°16'510.5
2018-Jan-04 23:31N 34°29' E 135°11'510.6
2018-Jan-04 23:01N 34°25' E 135°06'714.2
2018-Jan-04 22:30N 34°20' E 135°01'714.4
2018-Jan-04 22:00N 34°13' E 134°59'2 4.5
2018-Jan-04 21:30N 34°10' E 134°59'815.9
2018-Jan-04 21:01N 34°18' E 134°59'815.5
2018-Jan-04 20:31N 34°26' E 135°02'816.4
2018-Jan-04 20:00N 34°33' E 135°07'713.5
2018-Jan-04 19:30N 34°39' E 135°10'0 0.5
2018-Jan-04 19:00N 34°39' E 135°09'0 0.0
2018-Jan-03 22:40N 34°39' E 135°09'1 4.7
2018-Jan-03 22:30N 34°38' E 135°09'714.5
2018-Jan-03 22:00N 34°38' E 135°01'1 3.0
2018-Jan-03 21:31N 34°38' E 134°59'510.0
2018-Jan-03 21:00N 34°36' E 135°04'4 7.5
2018-Jan-03 20:31N 34°34' E 135°08'3 5.4
2018-Jan-03 20:00N 34°34' E 135°05'3 5.9
2018-Jan-03 19:30N 34°35' E 135°02'1 1.3
2018-Jan-03 19:00N 34°36' E 135°01'2 4.8
2018-Jan-03 18:30N 34°38' E 134°59'4 7.9
2018-Jan-03 18:01N 34°36' E 135°04'3 6.6
2018-Jan-03 17:31N 34°35' E 135°08'4 7.7
2018-Jan-03 17:01N 34°39' E 135°09'0 0.0
2018-Jan-01 22:15N 34°39' E 135°09'310.9
2018-Jan-01 22:01N 34°38' E 135°12'4 7.9
2018-Jan-01 21:30N 34°36' E 135°16'611.4
2018-Jan-01 21:01N 34°31' E 135°13'713.4
2018-Jan-01 20:31N 34°26' E 135°08'713.3
2018-Jan-01 20:01N 34°20' E 135°02'612.3
2018-Jan-01 19:30N 34°15' E 134°59'4 8.6
2018-Jan-01 19:01N 34°11' E 134°60'510.4
2018-Jan-01 18:31N 34°16' E 134°58'815.5
2018-Jan-01 18:00N 34°23' E 135°01'816.0
2018-Jan-01 17:31N 34°30' E 135°06'  

Dump ship's entire track history